Ridgewood, New York
Current Conditions -  °F | °C
As of 11:51 AM on Saturday 25 Oct 2014 (Local Time) from KLGA Reporting Station
Few Clouds Few Clouds  
Wind Chill: 61°   Ceiling: Unl
Heat Index: 61°   Visibility: 10mi
Dew Point: 40°   Wind: 13mph
Humidity: 46%   Direction: 260°W
Pressure: 29.81"   Gusts: NA
Location:  40.7°N, 73.9°W
Report Text: KLGA 251551Z 26011KT 10SM FEW250 16/04 A2981 RMK AO2 SLP095 T01610044
Loading
Personal Weather Stations






























Interactive Weather Map New forecast layout! Learn more

10-Day Weather Forecast

Advertisements
Track Severe Weather on mobile